sensor_id;sensor_type;location;lat;lon;timestamp;P1;durP1;ratioP1;P2;durP2;ratioP2
75866;SDS011;64513;56.258;43.980;2022-11-18T00:00:22;6.12;;;2.55;;
75866;SDS011;64513;56.258;43.980;2022-11-18T00:02:46;7.08;;;2.55;;
75866;SDS011;64513;56.258;43.980;2022-11-18T00:05:11;6.67;;;2.35;;
75866;SDS011;64513;56.258;43.980;2022-11-18T00:07:35;6.73;;;2.40;;
75866;SDS011;64513;56.258;43.980;2022-11-18T00:09:59;5.05;;;1.95;;
75866;SDS011;64513;56.258;43.980;2022-11-18T00:12:24;4.85;;;2.05;;
75866;SDS011;64513;56.258;43.980;2022-11-18T00:15:08;6.80;;;2.20;;
75866;SDS011;64513;56.258;43.980;2022-11-18T00:17:32;6.58;;;2.67;;
75866;SDS011;64513;56.258;43.980;2022-11-18T00:19:57;5.20;;;2.33;;
75866;SDS011;64513;56.258;43.980;2022-11-18T00:22:21;5.45;;;2.47;;
75866;SDS011;64513;56.258;43.980;2022-11-18T00:24:45;5.65;;;2.22;;
75866;SDS011;64513;56.258;43.980;2022-11-18T00:27:09;5.15;;;2.17;;
75866;SDS011;64513;56.258;43.980;2022-11-18T00:29:33;4.67;;;1.85;;
75866;SDS011;64513;56.258;43.980;2022-11-18T00:31:57;4.87;;;2.20;;
75866;SDS011;64513;56.258;43.980;2022-11-18T00:34:21;5.28;;;2.20;;
75866;SDS011;64513;56.258;43.980;2022-11-18T00:36:47;4.72;;;1.90;;
75866;SDS011;64513;56.258;43.980;2022-11-18T00:39:12;5.42;;;2.12;;
75866;SDS011;64513;56.258;43.980;2022-11-18T00:41:38;5.05;;;1.98;;
75866;SDS011;64513;56.258;43.980;2022-11-18T00:44:22;4.37;;;2.00;;
75866;SDS011;64513;56.258;43.980;2022-11-18T00:46:46;5.47;;;2.60;;
75866;SDS011;64513;56.258;43.980;2022-11-18T00:49:10;6.05;;;2.08;;
75866;SDS011;64513;56.258;43.980;2022-11-18T00:51:34;5.78;;;2.37;;
75866;SDS011;64513;56.258;43.980;2022-11-18T00:53:59;4.53;;;2.27;;
75866;SDS011;64513;56.258;43.980;2022-11-18T00:56:23;5.27;;;1.80;;
75866;SDS011;64513;56.258;43.980;2022-11-18T00:58:47;5.87;;;2.30;;
75866;SDS011;64513;56.258;43.980;2022-11-18T01:01:11;4.78;;;2.10;;
75866;SDS011;64513;56.258;43.980;2022-11-18T01:03:35;4.78;;;1.90;;
75866;SDS011;64513;56.258;43.980;2022-11-18T01:06:00;4.75;;;2.17;;
75866;SDS011;64513;56.258;43.980;2022-11-18T01:08:24;5.83;;;2.30;;
75866;SDS011;64513;56.258;43.980;2022-11-18T01:10:48;4.92;;;2.05;;
75866;SDS011;64513;56.258;43.980;2022-11-18T01:13:14;5.50;;;2.20;;
75866;SDS011;64513;56.258;43.980;2022-11-18T01:15:40;4.80;;;2.22;;
75866;SDS011;64513;56.258;43.980;2022-11-18T01:18:05;4.78;;;2.08;;
75866;SDS011;64513;56.258;43.980;2022-11-18T01:20:31;5.87;;;2.37;;
75866;SDS011;64513;56.258;43.980;2022-11-18T01:22:55;5.45;;;2.30;;
75866;SDS011;64513;56.258;43.980;2022-11-18T01:25:19;6.60;;;2.50;;
75866;SDS011;64513;56.258;43.980;2022-11-18T01:27:44;5.45;;;2.10;;
75866;SDS011;64513;56.258;43.980;2022-11-18T01:30:08;5.65;;;2.35;;
75866;SDS011;64513;56.258;43.980;2022-11-18T01:32:32;6.37;;;2.53;;
75866;SDS011;64513;56.258;43.980;2022-11-18T01:34:57;6.05;;;2.05;;
75866;SDS011;64513;56.258;43.980;2022-11-18T01:37:21;7.12;;;2.30;;
75866;SDS011;64513;56.258;43.980;2022-11-18T01:39:45;6.00;;;2.20;;
75866;SDS011;64513;56.258;43.980;2022-11-18T01:51:02;5.40;;;2.20;;
75866;SDS011;64513;56.258;43.980;2022-11-18T01:53:30;5.10;;;2.20;;
75866;SDS011;64513;56.258;43.980;2022-11-18T01:55:56;5.58;;;2.22;;
75866;SDS011;64513;56.258;43.980;2022-11-18T01:58:24;5.77;;;2.20;;
75866;SDS011;64513;56.258;43.980;2022-11-18T02:00:49;6.10;;;2.45;;
75866;SDS011;64513;56.258;43.980;2022-11-18T02:03:15;5.60;;;2.33;;
75866;SDS011;64513;56.258;43.980;2022-11-18T02:05:39;5.15;;;2.30;;
75866;SDS011;64513;56.258;43.980;2022-11-18T02:08:08;5.37;;;2.30;;
75866;SDS011;64513;56.258;43.980;2022-11-18T02:10:32;6.43;;;2.40;;
75866;SDS011;64513;56.258;43.980;2022-11-18T02:12:58;5.92;;;2.17;;
75866;SDS011;64513;56.258;43.980;2022-11-18T02:30:28;6.25;;;2.50;;
75866;SDS011;64513;56.258;43.980;2022-11-18T02:38:45;6.47;;;2.20;;
75866;SDS011;64513;56.258;43.980;2022-11-18T02:41:30;6.08;;;2.42;;
75866;SDS011;64513;56.258;43.980;2022-11-18T02:49:13;5.30;;;2.10;;
75866;SDS011;64513;56.258;43.980;2022-11-18T02:51:55;5.40;;;2.40;;
75866;SDS011;64513;56.258;43.980;2022-11-18T02:54:22;5.97;;;2.22;;
75866;SDS011;64513;56.258;43.980;2022-11-18T02:56:48;5.45;;;2.35;;
75866;SDS011;64513;56.258;43.980;2022-11-18T03:01:58;4.55;;;1.95;;
75866;SDS011;64513;56.258;43.980;2022-11-18T03:04:23;5.03;;;2.13;;
75866;SDS011;64513;56.258;43.980;2022-11-18T03:06:49;5.55;;;2.27;;
75866;SDS011;64513;56.258;43.980;2022-11-18T03:09:34;5.83;;;2.42;;
75866;SDS011;64513;56.258;43.980;2022-11-18T03:31:40;5.73;;;2.20;;
75866;SDS011;64513;56.258;43.980;2022-11-18T03:34:27;5.20;;;2.20;;
75866;SDS011;64513;56.258;43.980;2022-11-18T03:37:10;5.83;;;2.12;;
75866;SDS011;64513;56.258;43.980;2022-11-18T03:39:39;6.25;;;2.47;;
75866;SDS011;64513;56.258;43.980;2022-11-18T03:42:05;6.85;;;2.58;;
75866;SDS011;64513;56.258;43.980;2022-11-18T03:44:50;7.00;;;2.40;;
75866;SDS011;64513;56.258;43.980;2022-11-18T03:47:18;6.75;;;2.45;;
75866;SDS011;64513;56.258;43.980;2022-11-18T03:52:47;5.58;;;2.60;;
75866;SDS011;64513;56.258;43.980;2022-11-18T03:55:16;5.17;;;2.30;;
75866;SDS011;64513;56.258;43.980;2022-11-18T04:00:28;4.55;;;2.10;;
75866;SDS011;64513;56.258;43.980;2022-11-18T04:02:54;6.28;;;2.20;;
75866;SDS011;64513;56.258;43.980;2022-11-18T04:05:18;6.20;;;2.80;;
75866;SDS011;64513;56.258;43.980;2022-11-18T04:15:42;6.42;;;2.35;;
75866;SDS011;64513;56.258;43.980;2022-11-18T04:18:06;5.45;;;2.40;;
75866;SDS011;64513;56.258;43.980;2022-11-18T04:20:31;6.47;;;2.50;;
75866;SDS011;64513;56.258;43.980;2022-11-18T04:22:57;5.93;;;2.20;;
75866;SDS011;64513;56.258;43.980;2022-11-18T04:25:21;6.67;;;2.50;;
75866;SDS011;64513;56.258;43.980;2022-11-18T04:27:45;5.87;;;2.58;;
75866;SDS011;64513;56.258;43.980;2022-11-18T04:30:10;5.72;;;2.60;;
75866;SDS011;64513;56.258;43.980;2022-11-18T04:32:35;5.80;;;2.40;;
75866;SDS011;64513;56.258;43.980;2022-11-18T04:34:59;4.90;;;2.13;;
75866;SDS011;64513;56.258;43.980;2022-11-18T04:37:24;6.70;;;2.80;;
75866;SDS011;64513;56.258;43.980;2022-11-18T04:39:48;5.42;;;2.40;;
75866;SDS011;64513;56.258;43.980;2022-11-18T04:42:12;7.15;;;2.58;;
75866;SDS011;64513;56.258;43.980;2022-11-18T04:44:36;5.05;;;2.30;;
75866;SDS011;64513;56.258;43.980;2022-11-18T04:47:02;5.77;;;2.50;;
75866;SDS011;64513;56.258;43.980;2022-11-18T04:49:28;5.03;;;2.37;;
75866;SDS011;64513;56.258;43.980;2022-11-18T04:51:53;5.67;;;2.40;;
75866;SDS011;64513;56.258;43.980;2022-11-18T04:54:18;6.37;;;2.58;;
75866;SDS011;64513;56.258;43.980;2022-11-18T04:56:43;5.83;;;2.60;;
75866;SDS011;64513;56.258;43.980;2022-11-18T04:59:08;5.40;;;2.27;;
75866;SDS011;64513;56.258;43.980;2022-11-18T05:01:33;6.00;;;2.60;;
75866;SDS011;64513;56.258;43.980;2022-11-18T05:06:24;6.08;;;2.42;;
75866;SDS011;64513;56.258;43.980;2022-11-18T05:08:48;5.05;;;2.12;;
75866;SDS011;64513;56.258;43.980;2022-11-18T05:11:12;5.27;;;2.57;;
75866;SDS011;64513;56.258;43.980;2022-11-18T05:13:56;7.20;;;2.42;;
75866;SDS011;64513;56.258;43.980;2022-11-18T05:16:21;5.87;;;2.50;;
75866;SDS011;64513;56.258;43.980;2022-11-18T05:18:45;6.15;;;2.25;;
75866;SDS011;64513;56.258;43.980;2022-11-18T05:21:09;5.75;;;2.33;;
75866;SDS011;64513;56.258;43.980;2022-11-18T05:23:34;6.27;;;2.47;;
75866;SDS011;64513;56.258;43.980;2022-11-18T05:26:02;6.12;;;2.60;;
75866;SDS011;64513;56.258;43.980;2022-11-18T05:28:43;5.83;;;2.42;;
75866;SDS011;64513;56.258;43.980;2022-11-18T05:31:08;6.58;;;2.50;;
75866;SDS011;64513;56.258;43.980;2022-11-18T05:33:34;6.35;;;2.12;;
75866;SDS011;64513;56.258;43.980;2022-11-18T05:36:01;5.80;;;2.23;;
75866;SDS011;64513;56.258;43.980;2022-11-18T05:38:44;5.50;;;2.42;;
75866;SDS011;64513;56.258;43.980;2022-11-18T05:41:08;5.95;;;2.50;;
75866;SDS011;64513;56.258;43.980;2022-11-18T05:43:53;5.90;;;2.42;;
75866;SDS011;64513;56.258;43.980;2022-11-18T05:46:17;7.08;;;2.72;;
75866;SDS011;64513;56.258;43.980;2022-11-18T05:48:41;8.67;;;3.37;;
75866;SDS011;64513;56.258;43.980;2022-11-18T05:51:05;7.08;;;2.77;;
75866;SDS011;64513;56.258;43.980;2022-11-18T05:53:30;6.78;;;2.72;;
75866;SDS011;64513;56.258;43.980;2022-11-18T05:55:56;5.08;;;2.40;;
75866;SDS011;64513;56.258;43.980;2022-11-18T05:58:21;6.97;;;3.27;;
75866;SDS011;64513;56.258;43.980;2022-11-18T06:00:45;6.83;;;2.83;;
75866;SDS011;64513;56.258;43.980;2022-11-18T06:03:12;6.62;;;2.80;;
75866;SDS011;64513;56.258;43.980;2022-11-18T06:05:57;5.90;;;2.50;;
75866;SDS011;64513;56.258;43.980;2022-11-18T06:08:24;7.20;;;2.70;;
75866;SDS011;64513;56.258;43.980;2022-11-18T06:10:50;5.33;;;2.22;;
75866;SDS011;64513;56.258;43.980;2022-11-18T06:13:16;5.87;;;2.67;;
75866;SDS011;64513;56.258;43.980;2022-11-18T06:15:42;6.55;;;2.77;;
75866;SDS011;64513;56.258;43.980;2022-11-18T06:20:55;5.62;;;2.55;;
75866;SDS011;64513;56.258;43.980;2022-11-18T06:23:22;7.28;;;3.10;;
75866;SDS011;64513;56.258;43.980;2022-11-18T06:25:46;5.83;;;2.40;;
75866;SDS011;64513;56.258;43.980;2022-11-18T06:28:11;5.70;;;2.50;;
75866;SDS011;64513;56.258;43.980;2022-11-18T06:30:37;7.87;;;2.75;;
75866;SDS011;64513;56.258;43.980;2022-11-18T06:33:01;6.90;;;2.92;;
75866;SDS011;64513;56.258;43.980;2022-11-18T06:35:26;6.40;;;2.90;;
75866;SDS011;64513;56.258;43.980;2022-11-18T06:37:50;6.03;;;2.57;;
75866;SDS011;64513;56.258;43.980;2022-11-18T06:40:14;8.08;;;2.72;;
75866;SDS011;64513;56.258;43.980;2022-11-18T06:42:39;6.95;;;3.08;;
75866;SDS011;64513;56.258;43.980;2022-11-18T06:45:23;6.85;;;3.10;;
75866;SDS011;64513;56.258;43.980;2022-11-18T06:47:47;6.42;;;2.65;;
75866;SDS011;64513;56.258;43.980;2022-11-18T06:50:11;6.63;;;3.00;;
75866;SDS011;64513;56.258;43.980;2022-11-18T06:52:36;6.37;;;2.70;;
75866;SDS011;64513;56.258;43.980;2022-11-18T06:55:00;5.65;;;2.95;;
75866;SDS011;64513;56.258;43.980;2022-11-18T06:57:26;5.30;;;2.50;;
75866;SDS011;64513;56.258;43.980;2022-11-18T06:59:50;6.22;;;2.90;;
75866;SDS011;64513;56.258;43.980;2022-11-18T07:02:14;7.43;;;2.90;;
75866;SDS011;64513;56.258;43.980;2022-11-18T07:04:39;6.20;;;3.33;;
75866;SDS011;64513;56.258;43.980;2022-11-18T07:07:03;6.08;;;2.87;;
75866;SDS011;64513;56.258;43.980;2022-11-18T07:09:27;6.70;;;2.90;;
75866;SDS011;64513;56.258;43.980;2022-11-18T07:11:52;5.97;;;3.15;;
75866;SDS011;64513;56.258;43.980;2022-11-18T07:14:16;8.13;;;2.87;;
75866;SDS011;64513;56.258;43.980;2022-11-18T07:16:40;6.50;;;2.62;;
75866;SDS011;64513;56.258;43.980;2022-11-18T07:21:49;6.80;;;2.95;;
75866;SDS011;64513;56.258;43.980;2022-11-18T07:24:14;7.35;;;2.83;;
75866;SDS011;64513;56.258;43.980;2022-11-18T07:26:38;6.77;;;3.00;;
75866;SDS011;64513;56.258;43.980;2022-11-18T07:29:04;7.33;;;2.95;;
75866;SDS011;64513;56.258;43.980;2022-11-18T07:31:28;7.58;;;2.80;;
75866;SDS011;64513;56.258;43.980;2022-11-18T07:33:54;6.20;;;2.90;;
75866;SDS011;64513;56.258;43.980;2022-11-18T07:38:46;7.50;;;3.10;;
75866;SDS011;64513;56.258;43.980;2022-11-18T07:41:12;6.92;;;3.00;;
75866;SDS011;64513;56.258;43.980;2022-11-18T07:43:38;6.67;;;2.90;;
75866;SDS011;64513;56.258;43.980;2022-11-18T07:48:48;7.55;;;3.20;;
75866;SDS011;64513;56.258;43.980;2022-11-18T07:51:14;7.47;;;3.27;;
75866;SDS011;64513;56.258;43.980;2022-11-18T07:53:40;6.28;;;2.85;;
75866;SDS011;64513;56.258;43.980;2022-11-18T07:56:05;6.75;;;3.08;;
75866;SDS011;64513;56.258;43.980;2022-11-18T07:58:30;8.45;;;3.17;;
75866;SDS011;64513;56.258;43.980;2022-11-18T08:00:54;8.38;;;3.87;;
75866;SDS011;64513;56.258;43.980;2022-11-18T08:03:19;7.60;;;3.10;;
75866;SDS011;64513;56.258;43.980;2022-11-18T08:05:44;6.55;;;3.00;;
75866;SDS011;64513;56.258;43.980;2022-11-18T08:08:09;7.75;;;3.62;;
75866;SDS011;64513;56.258;43.980;2022-11-18T08:10:33;8.55;;;3.22;;
75866;SDS011;64513;56.258;43.980;2022-11-18T08:12:57;6.30;;;2.98;;
75866;SDS011;64513;56.258;43.980;2022-11-18T08:15:22;6.47;;;2.70;;
75866;SDS011;64513;56.258;43.980;2022-11-18T08:17:46;7.20;;;3.00;;
75866;SDS011;64513;56.258;43.980;2022-11-18T08:20:10;7.55;;;3.25;;
75866;SDS011;64513;56.258;43.980;2022-11-18T08:22:35;8.40;;;3.25;;
75866;SDS011;64513;56.258;43.980;2022-11-18T08:24:59;6.75;;;3.45;;
75866;SDS011;64513;56.258;43.980;2022-11-18T08:27:24;7.37;;;3.20;;
75866;SDS011;64513;56.258;43.980;2022-11-18T08:29:48;6.78;;;3.20;;
75866;SDS011;64513;56.258;43.980;2022-11-18T08:32:13;7.05;;;3.20;;
75866;SDS011;64513;56.258;43.980;2022-11-18T08:34:37;6.62;;;3.10;;
75866;SDS011;64513;56.258;43.980;2022-11-18T08:37:01;7.12;;;3.40;;
75866;SDS011;64513;56.258;43.980;2022-11-18T08:39:25;7.00;;;3.00;;
75866;SDS011;64513;56.258;43.980;2022-11-18T08:41:49;7.65;;;3.20;;
75866;SDS011;64513;56.258;43.980;2022-11-18T08:44:14;7.00;;;3.20;;
75866;SDS011;64513;56.258;43.980;2022-11-18T08:46:39;8.13;;;3.20;;
75866;SDS011;64513;56.258;43.980;2022-11-18T08:49:05;7.00;;;3.30;;
75866;SDS011;64513;56.258;43.980;2022-11-18T08:51:30;7.93;;;3.00;;
75866;SDS011;64513;56.258;43.980;2022-11-18T08:53:54;7.62;;;3.62;;
75866;SDS011;64513;56.258;43.980;2022-11-18T08:56:19;7.05;;;3.10;;
75866;SDS011;64513;56.258;43.980;2022-11-18T08:58:44;7.50;;;3.40;;
75866;SDS011;64513;56.258;43.980;2022-11-18T09:01:09;8.03;;;3.35;;
75866;SDS011;64513;56.258;43.980;2022-11-18T09:03:34;7.40;;;3.13;;
75866;SDS011;64513;56.258;43.980;2022-11-18T09:08:46;7.58;;;3.27;;
75866;SDS011;64513;56.258;43.980;2022-11-18T09:11:11;7.10;;;3.08;;
75866;SDS011;64513;56.258;43.980;2022-11-18T09:13:37;7.35;;;3.35;;
75866;SDS011;64513;56.258;43.980;2022-11-18T09:16:01;7.83;;;3.40;;
75866;SDS011;64513;56.258;43.980;2022-11-18T09:18:27;7.35;;;3.08;;
75866;SDS011;64513;56.258;43.980;2022-11-18T09:23:36;7.62;;;3.10;;
75866;SDS011;64513;56.258;43.980;2022-11-18T09:26:01;6.55;;;2.80;;
75866;SDS011;64513;56.258;43.980;2022-11-18T09:28:45;7.33;;;3.37;;
75866;SDS011;64513;56.258;43.980;2022-11-18T09:31:11;8.18;;;3.20;;
75866;SDS011;64513;56.258;43.980;2022-11-18T09:33:37;7.40;;;3.17;;
75866;SDS011;64513;56.258;43.980;2022-11-18T09:36:02;6.80;;;3.00;;
75866;SDS011;64513;56.258;43.980;2022-11-18T09:38:28;7.20;;;3.05;;
75866;SDS011;64513;56.258;43.980;2022-11-18T09:40:56;8.17;;;3.30;;
75866;SDS011;64513;56.258;43.980;2022-11-18T09:43:24;7.35;;;3.10;;
75866;SDS011;64513;56.258;43.980;2022-11-18T09:49:10;7.03;;;2.80;;
75866;SDS011;64513;56.258;43.980;2022-11-18T09:51:59;7.70;;;3.05;;
75866;SDS011;64513;56.258;43.980;2022-11-18T09:54:42;7.57;;;2.90;;
75866;SDS011;64513;56.258;43.980;2022-11-18T09:59:52;9.05;;;3.05;;
75866;SDS011;64513;56.258;43.980;2022-11-18T10:05:24;7.42;;;2.98;;
75866;SDS011;64513;56.258;43.980;2022-11-18T10:25:19;6.42;;;2.47;;
75866;SDS011;64513;56.258;43.980;2022-11-18T10:27:45;7.25;;;3.35;;
75866;SDS011;64513;56.258;43.980;2022-11-18T10:35:24;8.17;;;2.87;;
75866;SDS011;64513;56.258;43.980;2022-11-18T10:37:58;7.45;;;2.83;;
75866;SDS011;64513;56.258;43.980;2022-11-18T10:40:35;7.22;;;2.98;;
75866;SDS011;64513;56.258;43.980;2022-11-18T10:43:02;6.95;;;2.62;;
75866;SDS011;64513;56.258;43.980;2022-11-18T10:45:28;6.10;;;2.50;;
75866;SDS011;64513;56.258;43.980;2022-11-18T10:58:55;6.33;;;2.65;;
75866;SDS011;64513;56.258;43.980;2022-11-18T11:06:50;7.20;;;3.05;;
75866;SDS011;64513;56.258;43.980;2022-11-18T11:12:01;6.70;;;2.67;;
75866;SDS011;64513;56.258;43.980;2022-11-18T11:14:30;6.40;;;2.60;;
75866;SDS011;64513;56.258;43.980;2022-11-18T11:19:22;6.37;;;2.92;;
75866;SDS011;64513;56.258;43.980;2022-11-18T11:21:48;6.03;;;2.50;;
75866;SDS011;64513;56.258;43.980;2022-11-18T11:24:13;6.22;;;2.85;;
75866;SDS011;64513;56.258;43.980;2022-11-18T11:49:45;6.45;;;2.67;;
75866;SDS011;64513;56.258;43.980;2022-11-18T12:00:45;6.62;;;2.60;;
75866;SDS011;64513;56.258;43.980;2022-11-18T12:05:56;6.60;;;2.45;;
75866;SDS011;64513;56.258;43.980;2022-11-18T12:08:21;6.80;;;2.60;;
75866;SDS011;64513;56.258;43.980;2022-11-18T12:13:53;6.28;;;2.30;;
75866;SDS011;64513;56.258;43.980;2022-11-18T12:19:41;6.20;;;2.20;;
75866;SDS011;64513;56.258;43.980;2022-11-18T12:22:05;5.90;;;1.90;;
75866;SDS011;64513;56.258;43.980;2022-11-18T12:27:52;6.62;;;2.80;;
75866;SDS011;64513;56.258;43.980;2022-11-18T12:29:59;5.65;;;2.00;;
75866;SDS011;64513;56.258;43.980;2022-11-18T12:37:42;5.15;;;2.22;;
75866;SDS011;64513;56.258;43.980;2022-11-18T12:57:53;6.00;;;2.35;;
75866;SDS011;64513;56.258;43.980;2022-11-18T13:03:22;6.87;;;1.90;;
75866;SDS011;64513;56.258;43.980;2022-11-18T13:05:48;6.35;;;2.22;;
75866;SDS011;64513;56.258;43.980;2022-11-18T13:08:14;6.05;;;2.10;;
75866;SDS011;64513;56.258;43.980;2022-11-18T13:13:46;5.15;;;2.15;;
75866;SDS011;64513;56.258;43.980;2022-11-18T13:16:33;5.07;;;2.10;;
75866;SDS011;64513;56.258;43.980;2022-11-18T13:22:02;5.25;;;2.27;;
75866;SDS011;64513;56.258;43.980;2022-11-18T13:24:48;5.83;;;1.98;;
75866;SDS011;64513;56.258;43.980;2022-11-18T13:30:18;5.03;;;2.00;;
75866;SDS011;64513;56.258;43.980;2022-11-18T13:32:43;5.22;;;2.12;;
75866;SDS011;64513;56.258;43.980;2022-11-18T13:37:53;4.40;;;1.95;;
75866;SDS011;64513;56.258;43.980;2022-11-18T13:40:52;4.72;;;2.10;;
75866;SDS011;64513;56.258;43.980;2022-11-18T13:42:47;4.57;;;2.03;;
75866;SDS011;64513;56.258;43.980;2022-11-18T13:45:11;5.05;;;2.10;;
75866;SDS011;64513;56.258;43.980;2022-11-18T13:50:23;5.12;;;1.90;;
75866;SDS011;64513;56.258;43.980;2022-11-18T13:58:58;3.98;;;1.52;;
75866;SDS011;64513;56.258;43.980;2022-11-18T14:09:51;4.63;;;1.87;;
75866;SDS011;64513;56.258;43.980;2022-11-18T14:12:27;5.40;;;2.10;;
75866;SDS011;64513;56.258;43.980;2022-11-18T14:14:52;4.37;;;1.80;;
75866;SDS011;64513;56.258;43.980;2022-11-18T14:25:35;4.50;;;1.62;;
75866;SDS011;64513;56.258;43.980;2022-11-18T14:31:38;4.40;;;1.75;;
75866;SDS011;64513;56.258;43.980;2022-11-18T14:33:31;5.42;;;1.90;;
75866;SDS011;64513;56.258;43.980;2022-11-18T14:38:27;4.12;;;1.57;;
75866;SDS011;64513;56.258;43.980;2022-11-18T14:41:10;5.75;;;2.22;;
75866;SDS011;64513;56.258;43.980;2022-11-18T14:43:38;6.25;;;2.35;;
75866;SDS011;64513;56.258;43.980;2022-11-18T14:46:09;4.50;;;1.85;;
75866;SDS011;64513;56.258;43.980;2022-11-18T14:48:51;4.87;;;1.80;;
75866;SDS011;64513;56.258;43.980;2022-11-18T14:51:15;4.75;;;1.82;;
75866;SDS011;64513;56.258;43.980;2022-11-18T14:53:55;4.33;;;1.62;;
75866;SDS011;64513;56.258;43.980;2022-11-18T14:59:04;4.95;;;1.75;;
75866;SDS011;64513;56.258;43.980;2022-11-18T15:01:29;4.63;;;1.90;;
75866;SDS011;64513;56.258;43.980;2022-11-18T15:03:53;5.05;;;1.85;;
75866;SDS011;64513;56.258;43.980;2022-11-18T15:06:18;5.80;;;1.70;;
75866;SDS011;64513;56.258;43.980;2022-11-18T15:08:45;4.92;;;1.85;;
75866;SDS011;64513;56.258;43.980;2022-11-18T15:11:12;5.08;;;2.08;;
75866;SDS011;64513;56.258;43.980;2022-11-18T15:13:37;6.73;;;1.97;;
75866;SDS011;64513;56.258;43.980;2022-11-18T15:16:35;5.25;;;2.08;;
75866;SDS011;64513;56.258;43.980;2022-11-18T15:18:48;5.12;;;2.10;;
75866;SDS011;64513;56.258;43.980;2022-11-18T15:21:14;4.53;;;1.82;;
75866;SDS011;64513;56.258;43.980;2022-11-18T15:23:39;6.12;;;2.50;;
75866;SDS011;64513;56.258;43.980;2022-11-18T15:29:13;5.50;;;1.70;;
75866;SDS011;64513;56.258;43.980;2022-11-18T15:31:35;4.33;;;1.65;;
75866;SDS011;64513;56.258;43.980;2022-11-18T15:33:59;4.78;;;1.92;;
75866;SDS011;64513;56.258;43.980;2022-11-18T15:36:24;3.95;;;1.72;;
75866;SDS011;64513;56.258;43.980;2022-11-18T15:38:49;4.70;;;2.03;;
75866;SDS011;64513;56.258;43.980;2022-11-18T15:41:16;4.72;;;1.70;;
75866;SDS011;64513;56.258;43.980;2022-11-18T15:43:42;4.70;;;1.95;;
75866;SDS011;64513;56.258;43.980;2022-11-18T15:46:07;4.90;;;2.12;;
75866;SDS011;64513;56.258;43.980;2022-11-18T15:48:31;4.40;;;1.92;;
75866;SDS011;64513;56.258;43.980;2022-11-18T15:50:55;4.10;;;1.83;;
75866;SDS011;64513;56.258;43.980;2022-11-18T15:53:19;5.30;;;1.75;;
75866;SDS011;64513;56.258;43.980;2022-11-18T15:55:43;5.17;;;2.00;;
75866;SDS011;64513;56.258;43.980;2022-11-18T15:58:07;4.33;;;1.60;;
75866;SDS011;64513;56.258;43.980;2022-11-18T16:00:32;4.00;;;1.75;;
75866;SDS011;64513;56.258;43.980;2022-11-18T16:02:56;4.67;;;1.70;;
75866;SDS011;64513;56.258;43.980;2022-11-18T16:05:20;3.95;;;1.65;;
75866;SDS011;64513;56.258;43.980;2022-11-18T16:07:44;4.35;;;1.92;;
75866;SDS011;64513;56.258;43.980;2022-11-18T16:10:08;3.87;;;1.50;;
75866;SDS011;64513;56.258;43.980;2022-11-18T16:12:53;5.42;;;1.72;;
75866;SDS011;64513;56.258;43.980;2022-11-18T16:15:18;4.90;;;1.90;;
75866;SDS011;64513;56.258;43.980;2022-11-18T16:18:02;4.22;;;2.02;;
75866;SDS011;64513;56.258;43.980;2022-11-18T16:20:27;6.25;;;2.08;;
75866;SDS011;64513;56.258;43.980;2022-11-18T16:22:52;4.60;;;1.85;;
75866;SDS011;64513;56.258;43.980;2022-11-18T16:25:19;4.80;;;1.90;;
75866;SDS011;64513;56.258;43.980;2022-11-18T16:27:43;4.83;;;1.67;;
75866;SDS011;64513;56.258;43.980;2022-11-18T16:30:07;6.28;;;1.70;;
75866;SDS011;64513;56.258;43.980;2022-11-18T16:32:51;4.75;;;2.00;;
75866;SDS011;64513;56.258;43.980;2022-11-18T16:35:17;5.35;;;1.98;;
75866;SDS011;64513;56.258;43.980;2022-11-18T16:37:41;5.22;;;1.95;;
75866;SDS011;64513;56.258;43.980;2022-11-18T16:40:05;4.40;;;1.67;;
75866;SDS011;64513;56.258;43.980;2022-11-18T16:42:31;4.70;;;1.77;;
75866;SDS011;64513;56.258;43.980;2022-11-18T16:44:55;4.58;;;1.90;;
75866;SDS011;64513;56.258;43.980;2022-11-18T16:47:19;5.17;;;1.85;;
75866;SDS011;64513;56.258;43.980;2022-11-18T16:49:45;4.75;;;1.90;;
75866;SDS011;64513;56.258;43.980;2022-11-18T16:52:09;6.00;;;2.00;;
75866;SDS011;64513;56.258;43.980;2022-11-18T16:54:33;5.50;;;1.98;;
75866;SDS011;64513;56.258;43.980;2022-11-18T16:56:57;5.22;;;1.98;;
75866;SDS011;64513;56.258;43.980;2022-11-18T16:59:23;4.50;;;1.82;;
75866;SDS011;64513;56.258;43.980;2022-11-18T17:04:16;5.27;;;1.93;;
75866;SDS011;64513;56.258;43.980;2022-11-18T17:06:41;4.80;;;1.90;;
75866;SDS011;64513;56.258;43.980;2022-11-18T17:09:25;5.28;;;1.80;;
75866;SDS011;64513;56.258;43.980;2022-11-18T17:11:50;4.45;;;1.50;;
75866;SDS011;64513;56.258;43.980;2022-11-18T17:14:16;4.00;;;1.67;;
75866;SDS011;64513;56.258;43.980;2022-11-18T17:16:42;4.90;;;1.90;;
75866;SDS011;64513;56.258;43.980;2022-11-18T17:19:06;4.33;;;1.67;;
75866;SDS011;64513;56.258;43.980;2022-11-18T17:21:32;5.20;;;2.00;;
75866;SDS011;64513;56.258;43.980;2022-11-18T17:23:56;4.35;;;1.87;;
75866;SDS011;64513;56.258;43.980;2022-11-18T17:26:21;4.12;;;1.80;;
75866;SDS011;64513;56.258;43.980;2022-11-18T17:28:47;5.27;;;1.90;;
75866;SDS011;64513;56.258;43.980;2022-11-18T17:33:58;4.50;;;1.70;;
75866;SDS011;64513;56.258;43.980;2022-11-18T17:36:23;5.55;;;2.10;;
75866;SDS011;64513;56.258;43.980;2022-11-18T17:38:49;5.12;;;1.87;;
75866;SDS011;64513;56.258;43.980;2022-11-18T17:41:16;5.40;;;1.60;;
75866;SDS011;64513;56.258;43.980;2022-11-18T17:44:02;5.03;;;1.80;;
75866;SDS011;64513;56.258;43.980;2022-11-18T17:46:27;5.50;;;1.72;;
75866;SDS011;64513;56.258;43.980;2022-11-18T17:51:56;5.22;;;1.82;;
75866;SDS011;64513;56.258;43.980;2022-11-18T17:54:21;4.33;;;1.60;;
75866;SDS011;64513;56.258;43.980;2022-11-18T17:56:45;6.85;;;1.90;;
75866;SDS011;64513;56.258;43.980;2022-11-18T17:59:11;4.22;;;1.65;;
75866;SDS011;64513;56.258;43.980;2022-11-18T18:01:37;4.25;;;1.77;;
75866;SDS011;64513;56.258;43.980;2022-11-18T18:04:01;4.55;;;1.80;;
75866;SDS011;64513;56.258;43.980;2022-11-18T18:06:26;4.10;;;1.70;;
75866;SDS011;64513;56.258;43.980;2022-11-18T18:11:37;5.30;;;1.87;;
75866;SDS011;64513;56.258;43.980;2022-11-18T18:14:01;4.50;;;1.87;;
75866;SDS011;64513;56.258;43.980;2022-11-18T18:16:46;4.33;;;1.90;;
75866;SDS011;64513;56.258;43.980;2022-11-18T18:19:13;3.97;;;1.57;;
75866;SDS011;64513;56.258;43.980;2022-11-18T18:21:38;3.75;;;1.62;;
75866;SDS011;64513;56.258;43.980;2022-11-18T18:24:03;4.12;;;1.85;;
75866;SDS011;64513;56.258;43.980;2022-11-18T18:26:28;4.25;;;1.72;;
75866;SDS011;64513;56.258;43.980;2022-11-18T18:28:52;5.25;;;1.80;;
75866;SDS011;64513;56.258;43.980;2022-11-18T18:31:16;4.73;;;1.70;;
75866;SDS011;64513;56.258;43.980;2022-11-18T18:33:41;6.33;;;1.98;;
75866;SDS011;64513;56.258;43.980;2022-11-18T18:36:06;4.97;;;2.05;;
75866;SDS011;64513;56.258;43.980;2022-11-18T18:38:33;4.67;;;1.70;;
75866;SDS011;64513;56.258;43.980;2022-11-18T18:41:00;4.50;;;1.85;;
75866;SDS011;64513;56.258;43.980;2022-11-18T18:43:25;4.87;;;1.60;;
75866;SDS011;64513;56.258;43.980;2022-11-18T18:45:49;5.03;;;1.70;;
75866;SDS011;64513;56.258;43.980;2022-11-18T18:48:33;5.28;;;1.75;;
75866;SDS011;64513;56.258;43.980;2022-11-18T18:53:42;4.42;;;2.00;;
75866;SDS011;64513;56.258;43.980;2022-11-18T18:56:06;3.93;;;1.63;;
75866;SDS011;64513;56.258;43.980;2022-11-18T19:01:15;4.45;;;1.82;;
75866;SDS011;64513;56.258;43.980;2022-11-18T19:03:40;5.08;;;1.60;;
75866;SDS011;64513;56.258;43.980;2022-11-18T19:08:50;4.57;;;1.73;;
75866;SDS011;64513;56.258;43.980;2022-11-18T19:11:16;4.95;;;1.92;;